createdAt,value
2017-08-02T00:01:36.392Z,17.20
2017-08-02T00:04:03.977Z,17.20
2017-08-02T00:06:31.568Z,17.10
2017-08-02T00:08:59.187Z,17.10
2017-08-02T00:11:26.775Z,17.10
2017-08-02T00:13:54.363Z,17.10
2017-08-02T00:16:22.019Z,17.10
2017-08-02T00:18:49.617Z,17.00
2017-08-02T00:21:17.972Z,16.90
2017-08-02T00:23:45.603Z,16.90
2017-08-02T00:26:13.180Z,16.80
2017-08-02T00:28:40.784Z,16.70
2017-08-02T00:31:08.407Z,16.70
2017-08-02T00:33:36.006Z,16.70
2017-08-02T00:36:04.356Z,16.60
2017-08-02T00:38:32.152Z,16.60
2017-08-02T00:40:59.749Z,16.50
2017-08-02T00:43:27.332Z,16.50
2017-08-02T00:45:54.937Z,16.50
2017-08-02T00:48:22.523Z,16.50
2017-08-02T00:50:50.126Z,16.50
2017-08-02T00:53:17.751Z,16.50
2017-08-02T00:55:45.319Z,16.40
2017-08-02T00:58:12.917Z,16.50
2017-08-02T01:00:40.796Z,16.50
2017-08-02T01:03:08.400Z,16.50
2017-08-02T01:05:36.005Z,16.50
2017-08-02T01:08:04.407Z,16.50
2017-08-02T01:10:32.096Z,16.50
2017-08-02T01:12:59.671Z,16.50
2017-08-02T01:15:28.082Z,16.50
2017-08-02T01:17:55.687Z,16.40
2017-08-02T01:20:23.276Z,16.50
2017-08-02T01:22:50.907Z,16.50
2017-08-02T01:25:18.498Z,16.50
2017-08-02T01:27:46.097Z,16.50
2017-08-02T01:30:13.744Z,16.50
2017-08-02T01:32:41.319Z,16.50
2017-08-02T01:35:08.907Z,16.50
2017-08-02T01:37:36.530Z,16.50
2017-08-02T01:40:04.112Z,16.50
2017-08-02T01:42:31.705Z,16.50
2017-08-02T01:44:59.661Z,16.40
2017-08-02T01:47:27.253Z,16.40
2017-08-02T01:49:54.835Z,16.40
2017-08-02T01:52:23.245Z,16.30
2017-08-02T01:54:50.819Z,16.30
2017-08-02T01:57:18.408Z,16.30
2017-08-02T01:59:46.026Z,16.20
2017-08-02T02:02:14.394Z,16.20
2017-08-02T02:04:42.758Z,16.10
2017-08-02T02:07:10.411Z,16.10
2017-08-02T02:09:38.006Z,16.10
2017-08-02T02:12:05.588Z,16.10
2017-08-02T02:14:33.990Z,16.10
2017-08-02T02:17:01.562Z,16.00
2017-08-02T02:19:29.158Z,16.10
2017-08-02T02:21:56.790Z,16.00
2017-08-02T02:24:24.384Z,16.00
2017-08-02T02:26:51.968Z,16.00
2017-08-02T02:29:20.384Z,16.00
2017-08-02T02:31:47.991Z,16.00
2017-08-02T02:34:15.581Z,16.00
2017-08-02T02:36:43.209Z,16.00
2017-08-02T02:39:10.946Z,15.90
2017-08-02T02:41:38.522Z,15.90
2017-08-02T02:44:06.926Z,15.90
2017-08-02T02:46:34.507Z,15.90
2017-08-02T02:49:02.117Z,15.90
2017-08-02T02:51:29.750Z,15.90
2017-08-02T02:53:57.345Z,15.90
2017-08-02T02:56:24.939Z,15.90
2017-08-02T02:58:52.594Z,15.90
2017-08-02T03:01:20.172Z,15.90
2017-08-02T03:03:47.765Z,15.90
2017-08-02T03:06:15.379Z,15.90
2017-08-02T03:08:42.964Z,15.90
2017-08-02T03:11:10.561Z,16.00
2017-08-02T03:13:38.217Z,16.00
2017-08-02T03:16:06.586Z,16.00
2017-08-02T03:18:34.926Z,16.00
2017-08-02T03:21:02.705Z,16.00
2017-08-02T03:23:31.055Z,16.00
2017-08-02T03:25:59.458Z,16.00
2017-08-02T03:28:27.075Z,16.00
2017-08-02T03:30:54.655Z,16.10
2017-08-02T03:33:22.231Z,16.10
2017-08-02T03:35:49.859Z,16.10
2017-08-02T03:38:17.457Z,16.00
2017-08-02T03:40:45.044Z,16.00
2017-08-02T03:43:13.455Z,16.10
2017-08-02T03:45:41.030Z,16.00
2017-08-02T03:48:08.634Z,16.10
2017-08-02T03:50:36.258Z,16.00
2017-08-02T03:53:03.863Z,16.00
2017-08-02T03:55:31.466Z,16.10
2017-08-02T03:57:59.083Z,16.00
2017-08-02T04:00:26.658Z,16.10
2017-08-02T04:02:54.247Z,16.10
2017-08-02T04:05:22.137Z,16.20
2017-08-02T04:07:49.746Z,16.20
2017-08-02T04:10:17.333Z,16.20
2017-08-02T04:12:44.959Z,16.30
2017-08-02T04:15:12.621Z,16.20
2017-08-02T04:17:40.222Z,16.20
2017-08-02T04:20:07.848Z,16.30
2017-08-02T04:22:35.455Z,16.30
2017-08-02T04:25:03.034Z,16.30
2017-08-02T04:27:30.663Z,16.30
2017-08-02T04:29:58.273Z,16.40
2017-08-02T04:32:25.919Z,16.40
2017-08-02T04:34:53.539Z,16.40
2017-08-02T04:37:21.128Z,16.50
2017-08-02T04:39:48.713Z,16.50
2017-08-02T04:42:16.361Z,16.60
2017-08-02T04:44:43.983Z,16.70
2017-08-02T04:47:11.587Z,16.80
2017-08-02T04:49:39.222Z,16.80
2017-08-02T04:52:06.820Z,16.90
2017-08-02T04:54:34.414Z,17.00
2017-08-02T04:57:02.048Z,17.10
2017-08-02T04:59:29.622Z,17.20
2017-08-02T05:01:57.213Z,17.30
2017-08-02T05:04:24.844Z,17.30
2017-08-02T05:06:52.428Z,17.50
2017-08-02T05:09:20.021Z,17.60
2017-08-02T05:11:48.429Z,18.00
2017-08-02T05:14:16.021Z,18.00
2017-08-02T05:16:44.359Z,18.50
2017-08-02T05:19:11.996Z,18.40
2017-08-02T05:21:39.576Z,18.50
2017-08-02T05:24:07.910Z,18.40
2017-08-02T05:26:35.536Z,18.40
2017-08-02T05:29:03.124Z,18.40
2017-08-02T05:31:31.485Z,18.50
2017-08-02T05:33:59.874Z,18.50
2017-08-02T05:36:27.475Z,18.50
2017-08-02T05:38:55.080Z,18.60
2017-08-02T05:41:22.730Z,18.70
2017-08-02T05:43:50.302Z,18.80
2017-08-02T05:46:17.884Z,18.90
2017-08-02T05:48:45.665Z,19.10
2017-08-02T05:51:13.252Z,19.40
2017-08-02T05:53:40.836Z,19.60
2017-08-02T05:56:09.322Z,20.10
2017-08-02T05:58:36.906Z,20.10
2017-08-02T06:01:04.484Z,20.40
2017-08-02T06:03:33.068Z,22.80
2017-08-02T06:06:00.662Z,22.80
2017-08-02T06:08:28.240Z,24.10
2017-08-02T06:10:56.620Z,27.70
2017-08-02T06:13:24.207Z,27.60
2017-08-02T06:15:51.835Z,28.20
2017-08-02T06:18:19.486Z,28.20
2017-08-02T06:20:47.059Z,27.60
2017-08-02T06:23:14.650Z,27.70
2017-08-02T06:25:42.413Z,27.60
2017-08-02T06:28:09.984Z,27.00
2017-08-02T06:30:37.556Z,26.40
2017-08-02T06:33:05.962Z,28.90
2017-08-02T06:35:33.536Z,28.80
2017-08-02T06:38:01.120Z,30.20
2017-08-02T06:40:28.730Z,30.10
2017-08-02T06:42:57.076Z,29.70
2017-08-02T06:45:24.646Z,29.70
2017-08-02T06:47:52.501Z,29.50
2017-08-02T06:50:20.066Z,29.10
2017-08-02T06:52:47.653Z,29.00
2017-08-02T06:55:15.336Z,28.80
2017-08-02T06:57:42.924Z,28.60
2017-08-02T07:00:10.501Z,28.30
2017-08-02T07:02:38.107Z,28.00
2017-08-02T07:05:05.698Z,27.80
2017-08-02T07:07:34.093Z,27.50
2017-08-02T07:10:01.711Z,27.40
2017-08-02T07:12:30.045Z,27.30
2017-08-02T07:14:57.642Z,27.20
2017-08-02T07:17:25.291Z,27.00
2017-08-02T07:19:52.875Z,27.00
2017-08-02T07:22:20.452Z,27.00
2017-08-02T07:24:48.860Z,27.00
2017-08-02T07:27:16.440Z,27.00
2017-08-02T07:29:44.001Z,27.00
2017-08-02T07:32:12.379Z,26.90
2017-08-02T07:34:39.960Z,26.90
2017-08-02T07:37:07.526Z,26.80
2017-08-02T07:39:35.133Z,26.80
2017-08-02T07:42:03.477Z,27.00
2017-08-02T07:44:31.057Z,27.00
2017-08-02T07:46:58.695Z,27.00
2017-08-02T07:49:27.049Z,27.40
2017-08-02T07:51:55.386Z,27.60
2017-08-02T07:54:23.003Z,27.60
2017-08-02T07:56:50.594Z,27.70
2017-08-02T07:59:18.162Z,27.80
2017-08-02T08:01:45.778Z,27.90
2017-08-02T08:04:13.374Z,28.00
2017-08-02T08:06:40.956Z,27.90
2017-08-02T08:09:08.572Z,27.80
2017-08-02T08:11:36.156Z,27.80
2017-08-02T08:14:03.723Z,27.80
2017-08-02T08:16:31.351Z,27.90
2017-08-02T08:18:58.923Z,27.80
2017-08-02T08:21:26.519Z,28.10
2017-08-02T08:23:54.152Z,28.00
2017-08-02T08:26:21.723Z,27.80
2017-08-02T08:28:49.296Z,27.70
2017-08-02T08:31:16.920Z,27.50
2017-08-02T08:33:45.255Z,27.60
2017-08-02T08:36:12.850Z,27.60
2017-08-02T08:38:40.467Z,27.50
2017-08-02T08:41:08.812Z,27.30
2017-08-02T08:43:36.393Z,27.30
2017-08-02T08:46:04.026Z,27.40
2017-08-02T08:48:32.368Z,27.90
2017-08-02T08:50:59.962Z,27.90
2017-08-02T08:53:27.615Z,28.30
2017-08-02T08:55:55.180Z,28.60
2017-08-02T08:58:22.770Z,28.60
2017-08-02T09:00:51.168Z,28.50
2017-08-02T09:03:18.741Z,28.50
2017-08-02T09:05:46.306Z,28.10
2017-08-02T09:08:13.932Z,27.80
2017-08-02T09:10:41.522Z,27.60
2017-08-02T09:13:09.123Z,27.50
2017-08-02T09:15:37.523Z,27.40
2017-08-02T09:18:05.095Z,27.40
2017-08-02T09:20:32.676Z,27.30
2017-08-02T09:23:00.317Z,27.20
2017-08-02T09:25:27.922Z,27.00
2017-08-02T09:27:55.521Z,26.90
2017-08-02T09:30:23.156Z,26.70
2017-08-02T09:32:50.728Z,26.50
2017-08-02T09:35:19.055Z,26.30
2017-08-02T09:37:46.701Z,26.30
2017-08-02T09:40:15.048Z,26.20
2017-08-02T09:42:42.633Z,26.20
2017-08-02T09:45:10.268Z,26.30
2017-08-02T09:47:38.625Z,26.10
2017-08-02T09:50:06.962Z,25.80
2017-08-02T09:52:34.570Z,25.80
2017-08-02T09:55:02.165Z,25.60
2017-08-02T09:57:30.512Z,25.30
2017-08-02T09:59:58.807Z,25.30
2017-08-02T10:02:26.464Z,25.10
2017-08-02T10:04:54.045Z,24.90
2017-08-02T10:07:21.858Z,24.80
2017-08-02T10:09:49.432Z,24.70
2017-08-02T10:12:17.012Z,24.50
2017-08-02T10:14:44.883Z,24.40
2017-08-02T10:17:12.459Z,24.20
2017-08-02T10:19:40.031Z,24.20
2017-08-02T10:22:07.648Z,24.30
2017-08-02T10:24:35.221Z,24.50
2017-08-02T10:27:02.800Z,24.70
2017-08-02T10:29:32.124Z,25.00
2017-08-02T10:31:59.712Z,25.00
2017-08-02T10:34:28.056Z,25.00
2017-08-02T10:36:55.828Z,25.00
2017-08-02T10:39:24.163Z,24.90
2017-08-02T10:41:52.661Z,24.90
2017-08-02T10:44:20.293Z,24.90
2017-08-02T10:46:47.863Z,24.90
2017-08-02T10:49:15.458Z,24.80
2017-08-02T10:51:43.891Z,24.70
2017-08-02T10:54:11.468Z,24.60
2017-08-02T10:56:39.807Z,24.80
2017-08-02T10:59:07.600Z,24.80
2017-08-02T11:01:35.193Z,25.00
2017-08-02T11:04:02.754Z,25.20
2017-08-02T11:06:30.387Z,25.40
2017-08-02T11:08:57.964Z,25.60
2017-08-02T11:11:26.326Z,26.10
2017-08-02T11:13:53.953Z,26.10
2017-08-02T11:16:21.554Z,26.20
2017-08-02T11:18:49.136Z,26.30
2017-08-02T11:21:16.789Z,26.50
2017-08-02T11:23:45.142Z,26.90
2017-08-02T11:26:12.739Z,26.80
2017-08-02T11:28:40.454Z,27.00
2017-08-02T11:31:08.801Z,27.10
2017-08-02T11:33:36.389Z,27.00
2017-08-02T11:36:03.994Z,27.20
2017-08-02T11:38:32.357Z,27.20
2017-08-02T11:40:59.954Z,27.20
2017-08-02T11:43:27.582Z,27.10
2017-08-02T11:45:55.160Z,27.30
2017-08-02T11:48:22.738Z,27.40
2017-08-02T11:50:50.570Z,27.40
2017-08-02T11:53:18.917Z,27.30
2017-08-02T11:55:46.498Z,27.30
2017-08-02T11:58:14.340Z,27.20
2017-08-02T12:00:41.920Z,27.20
2017-08-02T12:03:09.495Z,27.10
2017-08-02T12:05:37.128Z,27.00
2017-08-02T12:08:04.707Z,27.10
2017-08-02T12:10:33.060Z,27.00
2017-08-02T12:13:01.475Z,27.00
2017-08-02T12:15:29.039Z,27.00
2017-08-02T12:17:56.616Z,27.00
2017-08-02T12:20:25.038Z,26.80
2017-08-02T12:22:52.602Z,26.80
2017-08-02T12:25:20.193Z,26.60
2017-08-02T12:27:48.031Z,26.50
2017-08-02T12:30:15.607Z,26.70
2017-08-02T12:32:43.195Z,26.70
2017-08-02T12:35:11.600Z,26.80
2017-08-02T12:37:39.166Z,26.80
2017-08-02T12:40:06.741Z,26.80
2017-08-02T12:42:34.373Z,26.60
2017-08-02T12:45:01.948Z,26.40
2017-08-02T12:47:29.526Z,26.20
2017-08-02T12:49:57.902Z,25.70
2017-08-02T12:52:26.254Z,25.60
2017-08-02T12:54:54.610Z,25.60
2017-08-02T12:57:23.008Z,25.80
2017-08-02T12:59:50.589Z,25.80
2017-08-02T13:02:18.182Z,26.10
2017-08-02T13:04:45.804Z,26.20
2017-08-02T13:07:13.385Z,26.20
2017-08-02T13:09:40.971Z,26.30
2017-08-02T13:12:08.597Z,26.40
2017-08-02T13:14:36.182Z,26.50
2017-08-02T13:17:04.537Z,26.70
2017-08-02T13:19:32.244Z,26.70
2017-08-02T13:21:59.838Z,27.00
2017-08-02T13:24:28.230Z,26.90
2017-08-02T13:26:55.844Z,26.90
2017-08-02T13:29:24.196Z,26.40
2017-08-02T13:31:51.771Z,26.40
2017-08-02T13:34:19.418Z,26.10
2017-08-02T13:36:46.996Z,25.80
2017-08-02T13:39:14.570Z,25.50
2017-08-02T13:41:42.394Z,25.20
2017-08-02T13:44:09.954Z,24.90
2017-08-02T13:46:37.528Z,24.70
2017-08-02T13:49:05.134Z,24.50
2017-08-02T13:51:32.818Z,24.20
2017-08-02T13:54:00.414Z,24.00
2017-08-02T13:56:28.306Z,23.70
2017-08-02T13:58:55.898Z,23.40
2017-08-02T14:01:24.236Z,22.80
2017-08-02T14:03:51.903Z,22.80
2017-08-02T14:06:20.244Z,22.50
2017-08-02T14:08:47.815Z,22.50
2017-08-02T14:11:15.447Z,22.50
2017-08-02T14:13:43.787Z,22.40
2017-08-02T14:16:11.382Z,22.40
2017-08-02T14:18:39.004Z,22.40
2017-08-02T14:21:07.371Z,22.40
2017-08-02T14:23:34.956Z,22.40
2017-08-02T14:26:02.798Z,22.50
2017-08-02T14:28:30.384Z,22.80
2017-08-02T14:30:57.946Z,23.10
2017-08-02T14:33:26.326Z,23.60
2017-08-02T14:35:53.898Z,23.60
2017-08-02T14:38:21.484Z,23.90
2017-08-02T14:40:49.212Z,24.10
2017-08-02T14:43:16.798Z,24.30
2017-08-02T14:45:45.140Z,24.70
2017-08-02T14:48:12.815Z,24.70
2017-08-02T14:50:40.473Z,24.80
2017-08-02T14:53:08.063Z,24.80
2017-08-02T14:55:35.838Z,24.70
2017-08-02T14:58:04.189Z,24.70
2017-08-02T15:00:31.786Z,24.70
2017-08-02T15:02:59.626Z,24.80
2017-08-02T15:05:27.208Z,24.80
2017-08-02T15:07:54.775Z,24.90
2017-08-02T15:10:23.204Z,24.80
2017-08-02T15:12:50.774Z,24.80
2017-08-02T15:15:18.347Z,24.90
2017-08-02T15:17:45.975Z,24.90
2017-08-02T15:20:14.329Z,25.20
2017-08-02T15:22:41.918Z,25.10
2017-08-02T15:25:09.557Z,25.20
2017-08-02T15:27:37.143Z,25.30
2017-08-02T15:30:04.719Z,25.30
2017-08-02T15:32:33.124Z,25.30
2017-08-02T15:35:00.720Z,25.20
2017-08-02T15:37:29.090Z,24.90
2017-08-02T15:39:56.743Z,24.90
2017-08-02T15:42:24.324Z,24.90
2017-08-02T15:44:52.686Z,24.90
2017-08-02T15:47:21.088Z,25.00
2017-08-02T15:49:48.676Z,25.00
2017-08-02T15:52:16.246Z,25.10
2017-08-02T15:54:44.644Z,25.10
2017-08-02T15:57:12.243Z,25.10
2017-08-02T15:59:40.591Z,25.00
2017-08-02T16:02:08.227Z,24.90
2017-08-02T16:04:35.797Z,24.90
2017-08-02T16:07:04.152Z,25.00
2017-08-02T16:09:32.545Z,24.90
2017-08-02T16:12:00.145Z,24.90
2017-08-02T16:14:27.720Z,24.90
2017-08-02T16:16:56.120Z,24.90
2017-08-02T16:19:23.717Z,24.90
2017-08-02T16:21:52.054Z,24.70
2017-08-02T16:24:19.744Z,24.70
2017-08-02T16:26:47.446Z,24.60
2017-08-02T16:29:15.041Z,24.60
2017-08-02T16:31:42.664Z,24.50
2017-08-02T16:34:11.030Z,24.40
2017-08-02T16:36:39.390Z,24.40
2017-08-02T16:39:07.802Z,24.40
2017-08-02T16:41:35.394Z,24.40
2017-08-02T16:44:02.990Z,24.50
2017-08-02T16:46:30.781Z,24.60
2017-08-02T16:48:58.365Z,24.70
2017-08-02T16:51:25.947Z,24.70
2017-08-02T16:53:54.530Z,24.70
2017-08-02T16:56:22.178Z,24.70
2017-08-02T16:58:49.770Z,24.50
2017-08-02T17:01:17.412Z,24.40
2017-08-02T17:03:45.001Z,24.20
2017-08-02T17:06:13.356Z,24.00
2017-08-02T17:08:41.743Z,23.80
2017-08-02T17:11:09.315Z,23.80
2017-08-02T17:13:36.893Z,23.70
2017-08-02T17:16:04.507Z,23.60
2017-08-02T17:18:32.101Z,23.40
2017-08-02T17:20:59.671Z,23.30
2017-08-02T17:23:27.296Z,23.20
2017-08-02T17:25:54.872Z,23.20
2017-08-02T17:28:22.462Z,23.10
2017-08-02T17:30:50.833Z,23.10
2017-08-02T17:33:19.180Z,23.10
2017-08-02T17:35:46.756Z,23.00
2017-08-02T17:38:14.376Z,23.10
2017-08-02T17:40:42.734Z,23.10
2017-08-02T17:43:10.303Z,23.10
2017-08-02T17:45:38.010Z,23.20
2017-08-02T17:48:05.588Z,23.20
2017-08-02T17:50:33.943Z,23.30
2017-08-02T17:53:02.322Z,23.30
2017-08-02T17:55:29.900Z,23.30
2017-08-02T17:57:57.484Z,23.30
2017-08-02T18:00:25.889Z,23.20
2017-08-02T18:02:53.470Z,23.20
2017-08-02T18:05:21.048Z,23.10
2017-08-02T18:07:49.650Z,23.00
2017-08-02T18:10:17.231Z,22.90
2017-08-02T18:12:44.799Z,22.90
2017-08-02T18:15:13.188Z,22.80
2017-08-02T18:17:40.758Z,22.70
2017-08-02T18:20:08.351Z,22.70
2017-08-02T18:22:36.828Z,22.50
2017-08-02T18:25:04.481Z,22.50
2017-08-02T18:27:32.073Z,22.40
2017-08-02T18:29:59.705Z,22.30
2017-08-02T18:32:27.282Z,22.20
2017-08-02T18:34:54.861Z,22.10
2017-08-02T18:37:22.507Z,22.00
2017-08-02T18:39:50.096Z,21.90
2017-08-02T18:42:18.454Z,21.70
2017-08-02T18:44:46.856Z,21.60
2017-08-02T18:47:14.440Z,21.60
2017-08-02T18:49:42.011Z,21.50
2017-08-02T18:52:09.803Z,21.50
2017-08-02T18:54:37.377Z,21.50
2017-08-02T18:57:04.952Z,21.50
2017-08-02T18:59:32.590Z,21.40
2017-08-02T19:02:00.936Z,21.40
2017-08-02T19:04:29.298Z,21.30
2017-08-02T19:06:57.704Z,21.30
2017-08-02T19:09:25.293Z,21.30
2017-08-02T19:11:52.877Z,21.30
2017-08-02T19:14:20.724Z,21.20
2017-08-02T19:16:48.308Z,21.20
2017-08-02T19:19:15.884Z,21.20
2017-08-02T19:21:43.526Z,21.10
2017-08-02T19:24:11.121Z,21.10
2017-08-02T19:26:38.705Z,21.10
2017-08-02T19:29:06.353Z,21.10
2017-08-02T19:31:33.941Z,21.10
2017-08-02T19:34:01.515Z,21.10
2017-08-02T19:36:29.130Z,21.10
2017-08-02T19:38:56.711Z,21.10
2017-08-02T19:41:24.301Z,21.10
2017-08-02T19:43:52.791Z,21.10
2017-08-02T19:46:20.363Z,21.00
2017-08-02T19:48:47.930Z,21.00
2017-08-02T19:51:15.565Z,21.10
2017-08-02T19:53:43.139Z,21.10
2017-08-02T19:56:11.489Z,21.00
2017-08-02T19:58:39.873Z,21.00
2017-08-02T20:01:07.442Z,21.00
2017-08-02T20:03:35.002Z,21.00
2017-08-02T20:06:02.611Z,21.00
2017-08-02T20:08:30.177Z,21.00
2017-08-02T20:10:57.770Z,21.00
2017-08-02T20:13:25.406Z,21.00
2017-08-02T20:15:52.999Z,21.00
2017-08-02T20:18:20.566Z,20.90
2017-08-02T20:20:48.180Z,20.90
2017-08-02T20:23:15.747Z,20.90
2017-08-02T20:25:43.311Z,20.90
2017-08-02T20:28:10.932Z,20.90
2017-08-02T20:30:38.512Z,20.80
2017-08-02T20:33:06.092Z,20.80
2017-08-02T20:35:33.728Z,20.80
2017-08-02T20:38:02.068Z,20.80
2017-08-02T20:40:29.664Z,20.80
2017-08-02T20:42:57.292Z,20.80
2017-08-02T20:45:25.650Z,20.80
2017-08-02T20:47:54.005Z,20.80
2017-08-02T20:50:22.391Z,20.80
2017-08-02T20:52:50.045Z,20.80
2017-08-02T20:55:17.628Z,20.80
2017-08-02T20:57:45.230Z,20.80
2017-08-02T21:00:12.810Z,20.80
2017-08-02T21:02:40.406Z,20.80
2017-08-02T21:05:08.027Z,20.80
2017-08-02T21:07:35.625Z,20.80
2017-08-02T21:10:03.203Z,20.80
2017-08-02T21:12:30.821Z,20.80
2017-08-02T21:14:58.409Z,20.80
2017-08-02T21:17:26.755Z,20.80
2017-08-02T21:19:54.370Z,20.80
2017-08-02T21:22:21.955Z,20.80
2017-08-02T21:24:49.540Z,20.80
2017-08-02T21:27:17.184Z,20.80
2017-08-02T21:29:44.777Z,20.90
2017-08-02T21:32:12.365Z,20.90
2017-08-02T21:34:40.000Z,21.00
2017-08-02T21:37:07.597Z,20.90
2017-08-02T21:39:35.181Z,20.90
2017-08-02T21:42:02.808Z,20.90
2017-08-02T21:44:30.381Z,20.90
2017-08-02T21:46:57.972Z,20.90
2017-08-02T21:49:26.355Z,20.80
2017-08-02T21:51:53.947Z,20.80
2017-08-02T21:54:21.534Z,20.80
2017-08-02T21:56:49.920Z,20.80
2017-08-02T21:59:17.504Z,20.80
2017-08-02T22:01:45.094Z,20.80
2017-08-02T22:04:12.754Z,20.80
2017-08-02T22:06:40.332Z,20.80
2017-08-02T22:09:07.917Z,20.80
2017-08-02T22:11:36.343Z,20.80
2017-08-02T22:14:03.922Z,20.80
2017-08-02T22:16:32.269Z,20.70
2017-08-02T22:19:00.666Z,20.70
2017-08-02T22:21:28.243Z,20.70
2017-08-02T22:23:55.835Z,20.70
2017-08-02T22:26:24.378Z,20.60
2017-08-02T22:28:51.960Z,20.60
2017-08-02T22:31:19.556Z,20.60
2017-08-02T22:33:47.182Z,20.50
2017-08-02T22:36:14.764Z,20.50
2017-08-02T22:38:42.344Z,20.50
2017-08-02T22:41:09.958Z,20.50
2017-08-02T22:43:37.523Z,20.50
2017-08-02T22:46:05.110Z,20.50
2017-08-02T22:48:33.494Z,20.40
2017-08-02T22:51:01.083Z,20.40
2017-08-02T22:53:28.665Z,20.40
2017-08-02T22:55:57.063Z,20.30
2017-08-02T22:58:24.654Z,20.30
2017-08-02T23:00:52.227Z,20.30
2017-08-02T23:03:20.612Z,20.20
2017-08-02T23:05:48.176Z,20.20
2017-08-02T23:08:15.760Z,20.20
2017-08-02T23:10:44.163Z,20.00
2017-08-02T23:13:11.849Z,20.00
2017-08-02T23:15:39.430Z,20.00
2017-08-02T23:18:07.815Z,19.90
2017-08-02T23:20:35.392Z,19.90
2017-08-02T23:23:02.954Z,19.80
2017-08-02T23:25:30.592Z,19.80
2017-08-02T23:27:58.166Z,19.80
2017-08-02T23:30:26.509Z,19.70
2017-08-02T23:32:54.300Z,19.70
2017-08-02T23:35:21.880Z,19.70
2017-08-02T23:37:49.472Z,19.60
2017-08-02T23:40:17.100Z,19.50
2017-08-02T23:42:44.675Z,19.40
2017-08-02T23:45:12.248Z,19.40
2017-08-02T23:47:40.149Z,19.30
2017-08-02T23:50:07.733Z,19.30
2017-08-02T23:52:35.303Z,19.30
2017-08-02T23:55:03.707Z,19.20
2017-08-02T23:57:31.297Z,19.10
2017-08-02T23:59:59.716Z,19.10
